Terminal Aerodrome Forecast
Issued by NWS

Home | Current Version | Previous Version | Text Only | Print | Product List | Glossary On
Versions: 1 2 3 4 5 6 7 8 9 10 11 12 13 14 15 16 17 18 19 20 21 22
000
FTUS44 KMAF 302109 AAA
TAFFST
TAF AMD
KFST 302109Z 3021/3118 11010KT P6SM SCT040 BKN080
     FM310400 14006KT P6SM SCT050 BKN100
      TEMPO 3104/3108 3SM TSRA BR BKN015 OVC040CB
     FM310800 13006KT P6SM BKN040 BKN100
      TEMPO 3108/3112 6SM TSRA BR BKN020CB=

USA.gov is the U.S. government's official web portal to all federal, state and local government web resources and services.